createdAt,value
2023-05-06T00:03:55.671Z,49.86
2023-05-06T00:08:58.464Z,49.83
2023-05-06T00:14:01.018Z,49.89
2023-05-06T00:19:04.037Z,50.01
2023-05-06T00:24:07.056Z,50.30
2023-05-06T00:29:09.720Z,50.49
2023-05-06T00:34:12.271Z,50.61
2023-05-06T00:39:14.867Z,50.54
2023-05-06T00:44:17.768Z,50.61
2023-05-06T00:49:21.072Z,50.69
2023-05-06T00:54:26.040Z,50.67
2023-05-06T00:59:28.735Z,50.81
2023-05-06T01:04:31.858Z,51.06
2023-05-06T01:09:37.483Z,51.31
2023-05-06T01:15:01.341Z,51.41
2023-05-06T01:20:06.236Z,51.30
2023-05-06T01:25:19.124Z,51.31
2023-05-06T01:30:25.006Z,51.15
2023-05-06T01:35:44.154Z,50.93
2023-05-06T01:40:54.228Z,50.87
2023-05-06T01:45:57.810Z,51.17
2023-05-06T01:51:00.468Z,51.32
2023-05-06T01:56:03.345Z,51.58
2023-05-06T02:01:05.905Z,51.78
2023-05-06T02:06:08.648Z,51.66
2023-05-06T02:11:11.154Z,51.39
2023-05-06T02:16:13.670Z,51.20
2023-05-06T02:21:16.198Z,51.06
2023-05-06T02:26:18.737Z,50.91
2023-05-06T02:31:21.440Z,50.78
2023-05-06T02:36:24.035Z,50.90
2023-05-06T02:41:26.619Z,51.01
2023-05-06T02:46:29.132Z,51.10
2023-05-06T02:51:31.816Z,51.02
2023-05-06T02:56:35.268Z,51.20
2023-05-06T03:01:37.887Z,51.16
2023-05-06T03:06:40.770Z,51.56
2023-05-06T03:11:43.951Z,51.47
2023-05-06T03:16:46.505Z,51.71
2023-05-06T03:21:49.393Z,51.76
2023-05-06T03:26:53.115Z,51.89
2023-05-06T03:36:59.198Z,51.91
2023-05-06T03:42:02.300Z,52.42
2023-05-06T03:47:04.857Z,52.66
2023-05-06T03:52:07.435Z,52.91
2023-05-06T03:57:10.198Z,53.27
2023-05-06T04:02:12.891Z,53.56
2023-05-06T04:07:15.664Z,53.69
2023-05-06T04:12:18.223Z,53.80
2023-05-06T04:17:20.796Z,53.77
2023-05-06T04:22:23.654Z,53.47
2023-05-06T04:27:29.755Z,53.13
2023-05-06T04:32:34.120Z,52.95
2023-05-06T04:37:36.766Z,52.81
2023-05-06T04:42:39.564Z,52.74
2023-05-06T04:47:43.313Z,52.62
2023-05-06T04:52:45.914Z,52.42
2023-05-06T04:57:48.586Z,52.31
2023-05-06T05:02:51.481Z,52.33
2023-05-06T05:07:55.580Z,52.34
2023-05-06T05:12:58.317Z,52.50
2023-05-06T05:18:00.973Z,52.74
2023-05-06T05:23:03.780Z,52.54
2023-05-06T05:28:06.265Z,52.48
2023-05-06T05:33:09.233Z,51.91
2023-05-06T05:38:13.935Z,51.26
2023-05-06T05:43:16.559Z,50.81
2023-05-06T05:48:19.091Z,50.45
2023-05-06T05:53:21.634Z,50.17
2023-05-06T05:58:24.139Z,49.61
2023-05-06T06:03:27.557Z,49.45
2023-05-06T06:08:31.889Z,47.93
2023-05-06T06:13:34.441Z,48.10
2023-05-06T06:18:37.012Z,47.88
2023-05-06T06:23:39.708Z,47.31
2023-05-06T06:28:44.432Z,46.36
2023-05-06T06:33:46.963Z,46.13
2023-05-06T06:38:49.497Z,45.57
2023-05-06T06:43:52.085Z,44.89
2023-05-06T06:48:55.134Z,42.99
2023-05-06T06:53:57.748Z,42.83
2023-05-06T06:59:00.529Z,42.74
2023-05-06T07:04:06.559Z,42.09
2023-05-06T07:09:10.266Z,42.16
2023-05-06T07:14:12.860Z,41.82
2023-05-06T07:19:15.439Z,41.35
2023-05-06T07:24:18.032Z,41.82
2023-05-06T07:29:20.632Z,41.33
2023-05-06T07:34:23.229Z,40.40
2023-05-06T07:39:25.885Z,39.53
2023-05-06T07:44:28.526Z,39.24
2023-05-06T07:49:34.085Z,38.77
2023-05-06T07:54:38.236Z,37.98
2023-05-06T07:59:40.791Z,38.11
2023-05-06T08:04:43.619Z,37.87
2023-05-06T08:09:46.535Z,37.65
2023-05-06T08:14:49.146Z,37.91
2023-05-06T08:19:51.776Z,37.83
2023-05-06T08:24:55.084Z,37.78
2023-05-06T08:29:58.727Z,37.80
2023-05-06T08:35:02.317Z,38.17
2023-05-06T08:40:06.508Z,37.91
2023-05-06T08:45:11.488Z,37.79
2023-05-06T08:50:14.274Z,37.50
2023-05-06T08:55:18.833Z,37.64
2023-05-06T09:00:22.058Z,37.50
2023-05-06T09:05:24.639Z,37.50
2023-05-06T09:10:32.945Z,37.81
2023-05-06T09:15:43.166Z,37.70
2023-05-06T09:20:48.452Z,37.78
2023-05-06T09:25:51.287Z,37.71
2023-05-06T09:30:54.300Z,37.95
2023-05-06T09:36:01.722Z,37.76
2023-05-06T09:41:05.067Z,38.03
2023-05-06T09:46:08.938Z,38.34
2023-05-06T09:51:11.594Z,38.65
2023-05-06T09:56:15.561Z,37.99
2023-05-06T10:01:32.705Z,38.09
2023-05-06T10:06:40.156Z,38.06
2023-05-06T10:11:45.514Z,37.99
2023-05-06T10:16:49.047Z,38.27
2023-05-06T10:22:05.598Z,38.14
2023-05-06T10:27:12.091Z,37.95
2023-05-06T10:32:17.309Z,38.16
2023-05-06T10:37:25.803Z,38.00
2023-05-06T10:42:33.859Z,38.15
2023-05-06T10:47:58.193Z,38.46
2023-05-06T10:53:00.814Z,38.66
2023-05-06T10:58:18.817Z,38.50
2023-05-06T11:03:24.060Z,38.57
2023-05-06T11:08:27.358Z,38.14
2023-05-06T11:13:35.053Z,37.83
2023-05-06T11:18:41.783Z,37.99
2023-05-06T11:23:52.012Z,37.65
2023-05-06T11:28:55.758Z,37.59
2023-05-06T11:34:01.721Z,38.15
2023-05-06T11:39:10.496Z,38.37
2023-05-06T11:44:24.551Z,38.17
2023-05-06T11:49:28.547Z,37.23
2023-05-06T11:54:39.036Z,37.36
2023-05-06T11:59:41.869Z,37.60
2023-05-06T12:04:46.853Z,38.06
2023-05-06T12:09:50.444Z,38.17
2023-05-06T12:14:54.022Z,38.03
2023-05-06T12:19:56.663Z,37.74
2023-05-06T12:25:15.435Z,37.90
2023-05-06T12:30:29.793Z,38.14
2023-05-06T12:35:32.836Z,38.02
2023-05-06T12:40:36.120Z,38.15
2023-05-06T12:45:39.883Z,38.08
2023-05-06T12:50:44.509Z,38.30
2023-05-06T12:55:47.061Z,38.55
2023-05-06T13:00:49.636Z,38.79
2023-05-06T13:05:52.186Z,38.71
2023-05-06T13:10:54.759Z,38.43
2023-05-06T13:15:57.470Z,37.94
2023-05-06T13:21:00.582Z,38.17
2023-05-06T13:26:06.225Z,38.37
2023-05-06T13:31:09.079Z,38.56
2023-05-06T13:36:11.833Z,38.29
2023-05-06T13:41:14.979Z,38.16
2023-05-06T13:46:17.661Z,37.86
2023-05-06T13:51:20.383Z,37.33
2023-05-06T13:56:22.956Z,37.59
2023-05-06T14:01:25.666Z,37.32
2023-05-06T14:06:29.312Z,37.42
2023-05-06T14:11:31.964Z,37.62
2023-05-06T14:16:34.565Z,37.72
2023-05-06T14:21:37.157Z,37.90
2023-05-06T14:26:40.415Z,38.01
2023-05-06T14:31:43.019Z,38.19
2023-05-06T14:36:45.632Z,38.29
2023-05-06T14:41:50.694Z,38.46
2023-05-06T14:46:53.267Z,38.61
2023-05-06T14:51:55.930Z,38.76
2023-05-06T14:57:01.271Z,38.79
2023-05-06T15:02:07.221Z,38.84
2023-05-06T15:07:10.733Z,38.93
2023-05-06T15:12:14.417Z,39.01
2023-05-06T15:17:17.002Z,38.95
2023-05-06T15:22:19.534Z,38.86
2023-05-06T15:27:22.109Z,38.48
2023-05-06T15:32:24.858Z,38.47
2023-05-06T15:37:27.864Z,38.49
2023-05-06T15:42:32.534Z,38.41
2023-05-06T15:47:35.270Z,38.08
2023-05-06T15:52:37.937Z,37.86
2023-05-06T15:57:42.984Z,37.98
2023-05-06T16:02:45.609Z,38.08
2023-05-06T16:07:48.491Z,38.21
2023-05-06T16:12:51.622Z,38.24
2023-05-06T16:17:54.329Z,38.29
2023-05-06T16:22:56.937Z,38.37
2023-05-06T16:27:59.747Z,38.38
2023-05-06T16:33:03.878Z,38.42
2023-05-06T16:38:06.682Z,38.60
2023-05-06T16:43:09.786Z,38.58
2023-05-06T16:48:16.933Z,38.69
2023-05-06T16:53:19.715Z,38.80
2023-05-06T16:58:22.376Z,38.87
2023-05-06T17:03:25.129Z,38.89
2023-05-06T17:08:27.878Z,38.95
2023-05-06T17:13:31.524Z,39.07
2023-05-06T17:18:34.276Z,39.17
2023-05-06T17:23:36.822Z,39.22
2023-05-06T17:28:39.354Z,39.37
2023-05-06T17:33:41.880Z,39.53
2023-05-06T17:38:44.468Z,39.64
2023-05-06T17:43:47.463Z,39.79
2023-05-06T17:48:50.141Z,39.95
2023-05-06T17:53:53.237Z,40.09
2023-05-06T17:58:56.468Z,40.26
2023-05-06T18:04:00.168Z,40.44
2023-05-06T18:09:03.062Z,40.62
2023-05-06T18:14:06.309Z,40.83
2023-05-06T18:19:08.855Z,41.03
2023-05-06T18:24:16.527Z,41.39
2023-05-06T18:29:19.729Z,41.58
2023-05-06T18:34:22.351Z,41.36
2023-05-06T18:39:25.281Z,41.63
2023-05-06T18:44:27.908Z,41.77
2023-05-06T18:49:31.102Z,42.46
2023-05-06T18:54:34.241Z,42.27
2023-05-06T18:59:36.733Z,42.63
2023-05-06T19:04:39.430Z,43.37
2023-05-06T19:09:42.942Z,42.81
2023-05-06T19:14:45.468Z,43.14
2023-05-06T19:19:49.030Z,43.41
2023-05-06T19:24:51.993Z,43.74
2023-05-06T19:29:55.128Z,43.48
2023-05-06T19:34:59.487Z,43.53
2023-05-06T19:40:04.231Z,43.49
2023-05-06T19:45:11.979Z,43.86
2023-05-06T19:50:15.106Z,43.63
2023-05-06T19:55:18.408Z,43.84
2023-05-06T20:00:22.014Z,44.03
2023-05-06T20:05:29.470Z,44.19
2023-05-06T20:10:33.539Z,44.56
2023-05-06T20:15:37.689Z,44.37
2023-05-06T20:20:40.922Z,46.30
2023-05-06T20:25:43.547Z,46.18
2023-05-06T20:30:47.913Z,48.28
2023-05-06T20:35:50.851Z,46.24
2023-05-06T20:40:53.444Z,45.87
2023-05-06T20:45:56.237Z,45.37
2023-05-06T20:50:58.895Z,46.21
2023-05-06T20:56:02.154Z,46.87
2023-05-06T21:01:05.099Z,46.28
2023-05-06T21:06:07.977Z,46.35
2023-05-06T21:11:10.764Z,46.38
2023-05-06T21:16:13.469Z,47.05
2023-05-06T21:21:16.007Z,47.06
2023-05-06T21:26:18.553Z,47.40
2023-05-06T21:31:23.368Z,46.57
2023-05-06T21:36:27.030Z,47.16
2023-05-06T21:41:29.662Z,47.33
2023-05-06T21:46:33.614Z,47.57
2023-05-06T21:51:36.224Z,49.13
2023-05-06T21:56:38.891Z,49.42
2023-05-06T22:01:41.640Z,50.48
2023-05-06T22:06:44.186Z,51.59
2023-05-06T22:11:47.074Z,49.96
2023-05-06T22:16:50.151Z,49.89
2023-05-06T22:21:53.744Z,50.18
2023-05-06T22:26:56.447Z,49.46
2023-05-06T22:31:59.375Z,49.38
2023-05-06T22:37:09.506Z,51.28
2023-05-06T22:42:12.045Z,51.55
2023-05-06T22:47:16.342Z,51.66
2023-05-06T22:52:20.118Z,51.63
2023-05-06T22:57:25.745Z,51.07
2023-05-06T23:02:28.564Z,51.52
2023-05-06T23:07:31.257Z,51.61
2023-05-06T23:12:34.547Z,50.71
2023-05-06T23:17:37.749Z,50.22
2023-05-06T23:22:40.443Z,50.12
2023-05-06T23:27:43.378Z,50.26
2023-05-06T23:32:46.208Z,51.73
2023-05-06T23:37:48.783Z,50.88
2023-05-06T23:42:51.365Z,51.81
2023-05-06T23:47:54.384Z,51.75
2023-05-06T23:52:57.148Z,51.67
2023-05-06T23:58:00.390Z,51.46
